Airfield :
LOGIN :

Register | Disclaimer

   EN    FR    IT 

 










Legend :    VFR   Marginal VFR   IFR   Intensive IFR   Very Intensive IFR
Visi :
Ceiling :
>= 8 km
>= 3000ft
5 to 8 km
1000 to 3000 ft
1500m to 5 km
500 to 1000 ft
800 to 1500m
200 to 500 ft
< 800m
< 200 ft
Symbols :   Thunderstorms  Fog  Heavy snow  Heavy precipitations  Wind > 20 kt
SIGMETs :     Misc.  Thunderstorms  Icing  Turbulence  Mountain Waves  Volcanic Ashes






- Airport Elevation : 228 ft
- IATA code : OPO


LPPR - Porto Fr. Sa Carneiro

CURRENT METAR :
  • 021630Z 33010KT 300V360 9999 FEW040 17/10 Q1015

EXPIRED METARs :
  • 021600Z 33011KT 9999 FEW040 17/10 Q1015
  • 021530Z 32011KT 290V350 9999 FEW040 17/10 Q1015
  • 021500Z 32010KT 280V350 9999 FEW040 17/09 Q1015
  • 021430Z 31009KT 290V350 9999 FEW040 17/10 Q1015
  • 021400Z 31009KT 270V340 9999 FEW040 16/10 Q1015

TAF TAF LPPR
Valid from the 02 at 12:00 until the 03 at 12:00 UTC


021100Z 0212/0312 31010KT 9999 SCT040
BECMG 0218/0221 VRB02KT CAVOK
BECMG 0222/0224 10005KT
BECMG 0310/0312 26007KT



MET'MAP, your aeronautical weather chart ! - Copyright ORBIFLY December 2007 - Disclaimer

ORBIFLY MET'MAP TEAM :

Programming & Development : Alexandra Zaïnal
Concept & original design : Baudouin d'Aumeries
Assistance for programming : Marc-Olivier Méhu
Technical & hardware support : Manuel Goepfert

Contact : metmap@orbifly.com




SOURCES & CREDITS :

   NOAA